Time;durP1;ratioP1;P1;durP2;ratioP2;P2;SDS_P1;SDS_P2;PMS_P1;PMS_P2;Temp;Humidity;BMP_temperature;BMP_pressure;BME280_temperature;BME280_humidity;BME280_pressure;Samples;Min_cycle;Max_cycle;Signal;HPM_P1;HPM_P2
2022/08/02 00:02:03;;;;;;;7.55;4.00;;;;;;;22.81;63.07;99661.09;4474888;32;34998;-82
2022/08/02 00:04:52;;;;;;;6.82;3.62;;;;;;;22.56;63.71;99658.97;4475937;32;35305;-82
2022/08/02 00:07:40;;;;;;;9.82;3.90;;;;;;;22.18;65.78;99660.38;4473653;32;35024;-82
2022/08/02 00:28:20;;;;;;;5.90;3.35;;;;;;;22.35;64.05;99665.25;4287543;33;1024098;-84
2022/08/02 00:31:05;;;;;;;5.00;3.53;;;;;;;22.27;64.60;99658.03;4314424;33;34726;-83
2022/08/02 00:33:50;;;;;;;4.37;3.12;;;;;;;22.48;64.34;99665.72;4319757;33;34556;-83
2022/08/02 00:36:35;;;;;;;5.00;3.50;;;;;;;22.54;63.96;99657.75;4307411;33;34095;-83
2022/08/02 00:39:20;;;;;;;4.45;3.50;;;;;;;22.54;64.26;99657.75;4308070;33;33678;-83
2022/08/02 00:42:06;;;;;;;4.50;3.08;;;;;;;22.54;63.96;99661.38;4328894;33;35167;-83
2022/08/02 00:44:51;;;;;;;3.85;2.97;;;;;;;22.51;64.02;99664.13;4339466;33;34354;-83
2022/08/02 00:47:37;;;;;;;4.00;3.17;;;;;;;22.54;64.11;99658.59;4324441;33;33038;-83
2022/08/02 00:50:22;;;;;;;5.10;3.40;;;;;;;22.11;65.33;99671.44;4317420;33;34259;-83
2022/08/02 00:53:08;;;;;;;6.50;3.17;;;;;;;22.30;64.53;99674.00;4318882;33;34633;-83
2022/08/02 00:55:53;;;;;;;5.68;3.22;;;;;;;22.21;65.10;99684.69;4308159;33;34661;-81
2022/08/02 00:58:38;;;;;;;7.60;3.40;;;;;;;22.39;63.42;99680.03;4320418;33;35745;-82
2022/08/02 01:01:37;;;;;;;5.90;3.22;;;;;;;22.08;64.43;99681.37;4310025;33;34935;-82
2022/08/02 01:04:22;;;;;;;5.00;3.40;;;;;;;22.04;65.84;99688.13;4329501;32;36341;-82
2022/08/02 01:07:17;;;;;;;5.03;3.37;;;;;;;21.77;66.83;99677.16;4453936;32;36174;-80
2022/08/02 01:10:04;;;;;;;5.78;3.67;;;;;;;21.52;68.76;99674.97;4447308;32;34553;-82
2022/08/02 01:12:51;;;;;;;3.67;3.30;;;;;;;21.41;69.72;99665.69;4460363;32;35258;-82
2022/08/02 01:15:43;;;;;;;5.80;3.67;;;;;;;22.12;65.66;99676.66;4459350;32;35191;-81
2022/08/02 01:18:35;;;;;;;5.37;3.20;;;;;;;22.02;65.63;99669.78;4459453;32;34595;-82
2022/08/02 01:21:35;;;;;;;5.43;3.20;;;;;;;22.23;65.29;99668.38;4461119;32;34457;-82
2022/08/02 01:24:39;;;;;;;4.15;3.20;;;;;;;21.83;66.93;99678.44;4448233;32;34940;-82
2022/08/02 01:27:35;;;;;;;4.70;3.35;;;;;;;21.68;67.87;99682.25;4458218;32;33553;-81
2022/08/02 01:30:22;;;;;;;5.85;3.67;;;;;;;21.59;68.17;99679.78;4448304;32;34808;-82
2022/08/02 01:33:10;;;;;;;4.22;3.08;;;;;;;21.68;67.33;99682.25;4446183;32;34152;-82
2022/08/02 01:35:57;;;;;;;5.70;3.62;;;;;;;21.69;67.29;99678.31;4449347;32;34091;-82
2022/08/02 01:38:47;;;;;;;5.85;3.58;;;;;;;21.91;65.94;99685.62;4449131;32;34589;-81
2022/08/02 01:41:34;;;;;;;4.53;3.47;;;;;;;21.95;65.70;99689.28;4449807;32;34501;-82
2022/08/02 01:44:21;;;;;;;8.70;3.72;;;;;;;22.06;65.54;99685.75;4447850;32;34574;-82
2022/08/02 01:47:18;;;;;;;;;;;;;;;22.01;65.81;99684.94;4438566;32;34127;-82
2022/08/02 01:50:05;;;;;;;5.35;3.70;;;;;;;20.99;70.34;99689.09;4449233;32;34623;-82
2022/08/02 01:52:55;;;;;;;5.80;3.83;;;;;;;20.71;72.85;99705.44;4451155;32;35058;-81
2022/08/02 01:55:46;;;;;;;5.05;3.80;;;;;;;20.76;73.46;99705.13;4436835;32;35431;-81
2022/08/02 01:58:44;;;;;;;5.72;3.72;;;;;;;20.40;75.07;99710.16;4435801;32;33189;-82
2022/08/02 02:01:32;;;;;;;6.80;4.40;;;;;;;20.54;74.36;99715.97;4448978;32;34629;-82
2022/08/02 02:04:21;;;;;;;4.87;3.95;;;;;;;19.89;77.05;99716.12;4449486;32;34835;-82
2022/08/02 02:07:08;;;;;;;6.40;4.22;;;;;;;20.30;75.05;99710.81;4449686;32;34626;-81
2022/08/02 02:09:55;;;;;;;5.37;3.85;;;;;;;20.21;75.24;99711.09;4433178;32;33098;-82
2022/08/02 02:12:47;;;;;;;4.65;3.67;;;;;;;20.87;72.00;99706.06;4448957;32;35670;-82
2022/08/02 02:15:34;;;;;;;5.85;3.85;;;;;;;20.64;73.12;99715.31;4448238;32;36123;-82
2022/08/02 02:18:27;;;;;;;5.90;3.55;;;;;;;21.21;70.24;99723.59;4447140;32;34295;-82
2022/08/02 02:21:14;;;;;;;6.47;3.85;;;;;;;21.29;69.60;99721.69;4420762;32;33844;-82
2022/08/02 02:24:00;;;;;;;6.22;3.90;;;;;;;21.31;69.40;99724.88;4434826;32;34126;-82
2022/08/02 02:26:48;;;;;;;5.40;3.55;;;;;;;21.59;68.31;99718.03;4451181;32;35984;-83
2022/08/02 02:29:42;;;;;;;5.33;3.70;;;;;;;21.48;68.97;99712.34;4445689;32;36041;-82
2022/08/02 02:32:30;;;;;;;5.85;3.70;;;;;;;21.48;68.81;99712.34;4434557;32;33767;-82
2022/08/02 02:35:17;;;;;;;5.30;4.07;;;;;;;21.33;69.50;99716.94;4437677;32;35445;-82
2022/08/02 02:41:02;;;;;;;5.55;3.75;;;;;;;21.34;69.47;99718.53;4448060;32;34435;-83
2022/08/02 02:43:49;;;;;;;5.32;3.55;;;;;;;21.24;70.04;99722.03;4448204;32;36384;-82
2022/08/02 02:46:36;;;;;;;5.37;3.53;;;;;;;20.84;71.60;99729.09;4447581;32;35038;-82
2022/08/02 02:49:24;;;;;;;6.15;4.10;;;;;;;20.89;71.66;99734.34;4446899;32;35884;-82
2022/08/02 02:52:13;;;;;;;8.10;4.70;;;;;;;20.09;75.87;99734.34;4447973;32;34267;-80
2022/08/02 02:55:00;;;;;;;6.75;4.47;;;;;;;20.08;76.46;99731.94;4436957;32;34198;-82
2022/08/02 02:57:47;;;;;;;7.47;4.55;;;;;;;19.55;80.03;99721.47;4443795;32;35565;-81
2022/08/02 03:03:39;;;;;;;5.90;4.15;;;;;;;19.08;82.94;99719.78;4446930;32;34460;-81
2022/08/02 03:06:27;;;;;;;7.28;4.22;;;;;;;19.50;80.84;99710.69;4449070;32;34099;-82
2022/08/02 03:09:13;;;;;;;5.22;3.87;;;;;;;19.24;81.29;99708.56;4450558;32;35546;-82
2022/08/02 03:12:00;;;;;;;6.65;4.32;;;;;;;19.29;80.21;99703.53;4425426;32;34546;-82
2022/08/02 03:14:46;;;;;;;9.45;5.07;;;;;;;19.77;78.24;99694.88;4425362;32;35427;-82
2022/08/02 03:17:43;;;;;;;7.00;4.12;;;;;;;19.01;83.32;99694.66;4437978;32;34537;-82
2022/08/02 03:20:29;;;;;;;7.12;4.50;;;;;;;19.67;79.40;99696.31;4438372;32;34586;-81
2022/08/02 03:23:15;;;;;;;6.70;4.50;;;;;;;18.72;86.31;99696.81;4449155;32;36035;-81
2022/08/02 03:26:02;;;;;;;6.07;4.32;;;;;;;18.61;87.82;99704.09;4450771;32;34492;-82
2022/08/02 03:28:49;;;;;;;10.57;4.82;;;;;;;19.09;84.58;99704.72;4445864;32;35056;-82
2022/08/02 03:31:39;;;;;;;8.30;4.22;;;;;;;19.39;82.78;99718.00;4437765;32;35109;-82
2022/08/02 03:34:26;;;;;;;5.47;4.15;;;;;;;19.67;80.41;99712.19;4436783;32;34187;-82
2022/08/02 03:37:14;;;;;;;5.50;4.05;;;;;;;18.75;84.68;99712.75;4447465;32;34110;-81
2022/08/02 03:40:02;;;;;;;6.57;4.55;;;;;;;19.45;81.83;99710.97;4433106;32;34141;-82
2022/08/02 03:42:49;;;;;;;5.78;4.18;;;;;;;20.15;77.45;99716.19;4431900;32;34199;-82
2022/08/02 03:45:46;;;;;;;6.53;4.30;;;;;;;20.07;77.53;99724.78;4434758;32;35601;-82
2022/08/02 03:48:35;;;;;;;5.32;4.07;;;;;;;19.80;79.45;99721.94;4438137;32;34148;-82
2022/08/02 03:51:23;;;;;;;5.28;4.05;;;;;;;19.74;79.89;99729.78;4425732;32;34132;-82
2022/08/02 03:54:10;;;;;;;7.53;4.05;;;;;;;20.37;76.78;99733.19;4433008;32;34580;-82
2022/08/02 03:56:57;;;;;;;6.47;3.92;;;;;;;20.68;74.36;99732.06;4442414;32;35076;-82
2022/08/02 03:59:45;;;;;;;5.45;4.35;;;;;;;20.82;73.54;99731.47;4447191;32;34589;-81
2022/08/02 04:02:31;;;;;;;6.68;4.45;;;;;;;20.59;74.48;99734.31;4444082;32;32919;-82
2022/08/02 04:05:18;;;;;;;7.28;4.80;;;;;;;19.72;79.81;99737.72;4443385;32;35639;-82
2022/08/02 04:08:05;;;;;;;7.25;4.50;;;;;;;20.10;78.92;99737.94;4447690;32;35644;-82
2022/08/02 04:11:31;;;;;;;7.70;4.60;;;;;;;20.51;76.48;99735.38;4448077;32;35999;-82
2022/08/02 04:14:18;;;;;;;6.78;4.30;;;;;;;20.87;74.07;99743.06;4449160;32;34160;-82
2022/08/02 04:17:07;;;;;;;6.87;4.90;;;;;;;20.99;73.53;99744.00;4443830;32;34536;-81
2022/08/02 04:20:04;;;;;;;5.87;4.55;;;;;;;20.62;74.97;99753.84;4446205;32;34948;-82
2022/08/02 04:23:00;;;;;;;6.85;4.75;;;;;;;20.83;74.35;99746.97;4447480;32;37320;-81
2022/08/02 04:25:49;;;;;;;6.37;5.12;;;;;;;20.62;75.34;99755.84;4447393;32;35054;-81
2022/08/02 04:28:36;;;;;;;6.70;4.53;;;;;;;20.85;75.09;99755.75;4436865;32;34268;-81
2022/08/02 04:31:23;;;;;;;8.52;4.60;;;;;;;21.25;72.88;99754.28;4426267;32;34908;-81
2022/08/02 04:34:12;;;;;;;9.45;4.65;;;;;;;20.81;74.77;99760.50;4441800;32;34519;-82
2022/08/02 04:37:01;;;;;;;6.68;5.05;;;;;;;19.99;78.10;99751.66;4443620;32;33744;-82
2022/08/02 04:39:48;;;;;;;7.95;5.05;;;;;;;18.82;85.87;99753.75;4442573;32;34601;-82
2022/08/02 04:42:35;;;;;;;5.80;4.50;;;;;;;19.90;80.43;99754.69;4441626;32;34957;-81
2022/08/02 04:45:22;;;;;;;9.85;4.45;;;;;;;20.64;76.82;99759.06;4445536;32;35442;-81
2022/08/02 04:48:09;;;;;;;7.70;4.43;;;;;;;20.51;77.13;99755.66;4445667;32;35595;-81
2022/08/02 04:50:56;;;;;;;7.90;4.45;;;;;;;19.31;82.82;99753.97;4445707;32;33864;-81
2022/08/02 04:53:44;;;;;;;10.05;5.00;;;;;;;19.00;85.24;99756.91;4435364;32;33750;-81
2022/08/02 04:56:34;;;;;;;8.07;5.22;;;;;;;19.19;84.88;99756.91;4451500;32;34425;-78
2022/08/02 04:59:21;;;;;;;6.95;4.72;;;;;;;19.33;84.14;99759.97;4436770;32;35032;-80
2022/08/02 05:02:09;;;;;;;6.43;4.72;;;;;;;19.13;84.72;99763.94;4423167;32;36121;-80
2022/08/02 05:04:56;;;;;;;6.47;4.62;;;;;;;18.92;87.09;99766.25;4445341;32;33778;-79
2022/08/02 05:07:43;;;;;;;7.37;4.45;;;;;;;19.81;82.80;99778.34;4434587;32;34580;-79
2022/08/02 05:10:29;;;;;;;9.82;5.20;;;;;;;20.16;81.07;99778.97;4451209;32;34218;-79
2022/08/02 05:13:16;;;;;;;9.20;4.87;;;;;;;20.84;77.12;99793.16;4436014;32;35552;-78
2022/08/02 05:16:03;;;;;;;6.03;4.15;;;;;;;20.83;78.29;99795.13;4449538;32;35216;-77
2022/08/02 05:18:50;;;;;;;6.70;4.32;;;;;;;21.31;75.91;99791.75;4446583;32;34259;-78
2022/08/02 05:21:36;;;;;;;7.35;4.80;;;;;;;21.56;73.98;99792.88;4445883;32;34167;-80
2022/08/02 05:24:24;;;;;;;8.35;4.75;;;;;;;21.31;74.10;99794.53;4449868;32;34695;-79
2022/08/02 05:27:14;;;;;;;9.60;4.47;;;;;;;21.38;73.67;99805.81;4446426;32;36042;-80
2022/08/02 05:30:08;;;;;;;5.82;4.55;;;;;;;21.60;72.44;99808.84;4432389;32;34407;-79
2022/08/02 05:32:56;;;;;;;7.78;4.20;;;;;;;20.53;78.95;99809.00;4431547;32;33136;-79
2022/08/02 05:35:46;;;;;;;10.23;4.68;;;;;;;20.94;77.16;99805.59;4422906;32;34655;-78
2022/08/02 05:38:32;;;;;;;6.12;4.62;;;;;;;20.37;79.79;99808.31;4431882;32;33806;-79
2022/08/02 05:41:23;;;;;;;6.65;4.47;;;;;;;20.92;76.62;99819.94;4429163;32;34605;-78
2022/08/02 05:44:12;;;;;;;6.87;4.45;;;;;;;21.90;70.97;99815.16;4423079;32;33828;-81
2022/08/02 05:46:59;;;;;;;7.15;4.50;;;;;;;21.64;71.14;99826.44;4434760;32;34314;-79
2022/08/02 05:49:46;;;;;;;7.60;4.10;;;;;;;21.97;68.80;99823.59;4430929;32;35268;-78
2022/08/02 05:52:48;;;;;;;6.60;3.95;;;;;;;22.21;67.96;99815.88;4432163;32;34557;-78
2022/08/02 05:56:09;;;;;;;6.30;4.25;;;;;;;22.34;66.78;99819.97;4433818;32;34996;-78
2022/08/02 05:59:11;;;;;;;7.28;3.62;;;;;;;22.45;65.63;99820.88;4430881;32;35648;-80
2022/08/02 06:02:03;;;;;;;5.47;4.10;;;;;;;22.39;65.65;99813.22;4430860;32;34924;-79
2022/08/02 06:04:59;;;;;;;10.23;3.85;;;;;;;21.79;68.66;99828.97;4422060;32;35084;-80
2022/08/02 06:07:51;;;;;;;5.22;3.60;;;;;;;22.94;63.37;99818.78;4431097;32;34140;-79
2022/08/02 06:10:39;;;;;;;6.33;3.27;;;;;;;22.63;63.78;99820.19;4416174;32;35087;-79
2022/08/02 06:13:27;;;;;;;5.12;3.35;;;;;;;22.72;62.46;99817.06;4429439;32;34954;-78
2022/08/02 06:16:14;;;;;;;4.97;3.60;;;;;;;23.01;61.35;99823.66;4430936;32;34063;-78
2022/08/02 06:19:04;;;;;;;4.40;2.90;;;;;;;23.31;59.78;99827.00;4432316;32;34176;-78
2022/08/02 06:21:51;;;;;;;5.22;3.35;;;;;;;23.73;59.89;99819.16;4419563;32;34690;-80
2022/08/02 06:24:58;;;;;;;6.68;3.40;;;;;;;24.26;57.78;99820.44;4419268;32;34679;-80
2022/08/02 06:27:48;;;;;;;5.87;3.53;;;;;;;24.22;57.43;99815.66;4429198;32;34193;-79
2022/08/02 06:30:36;;;;;;;5.90;3.50;;;;;;;23.92;57.37;99820.81;4439987;32;34764;-78
2022/08/02 06:33:23;;;;;;;6.07;3.37;;;;;;;23.69;59.23;99824.72;4443358;32;34272;-79
2022/08/02 06:36:26;;;;;;;4.60;3.28;;;;;;;23.15;61.18;99834.09;4446699;32;35978;-78
2022/08/02 06:39:26;;;;;;;8.20;3.78;;;;;;;23.92;57.86;99824.41;4446719;32;34519;-77
2022/08/02 06:42:16;;;;;;;5.28;3.70;;;;;;;24.19;58.35;99829.62;4433185;32;35061;-77
2022/08/02 06:45:21;;;;;;;6.18;3.85;;;;;;;24.40;56.53;99828.84;4447849;32;35602;-77
2022/08/02 06:48:08;;;;;;;5.12;3.53;;;;;;;24.83;57.42;99829.62;4446370;32;35169;-77
2022/08/02 06:50:56;;;;;;;4.75;3.50;;;;;;;24.15;55.97;99824.03;4435241;32;35321;-78
2022/08/02 06:53:44;;;;;;;5.62;3.60;;;;;;;23.65;58.84;99829.53;4429527;32;34652;-77
2022/08/02 06:56:31;;;;;;;7.05;3.78;;;;;;;24.38;56.36;99826.44;4434018;32;34109;-77
2022/08/02 06:59:18;;;;;;;4.60;3.40;;;;;;;24.48;55.78;99830.50;4435431;32;34995;-77
2022/08/02 07:02:05;;;;;;;5.50;3.17;;;;;;;24.88;54.51;99831.25;4437407;32;34295;-79
2022/08/02 07:04:52;;;;;;;4.32;3.40;;;;;;;25.10;52.60;99827.19;4418949;32;35012;-79
2022/08/02 07:07:40;;;;;;;5.07;3.33;;;;;;;25.79;53.74;99830.50;4430134;32;35470;-77
2022/08/02 07:10:27;;;;;;;5.90;3.25;;;;;;;25.90;51.53;99825.66;4428008;32;35031;-77
2022/08/02 07:13:15;;;;;;;4.85;3.67;;;;;;;26.00;52.21;99826.78;4443029;32;34446;-77
2022/08/02 07:16:04;;;;;;;6.68;3.58;;;;;;;26.10;50.93;99825.09;4445794;32;34447;-78
2022/08/02 07:18:53;;;;;;;4.85;3.50;;;;;;;26.06;50.38;99818.72;4446150;32;33927;-77
2022/08/02 07:21:44;;;;;;;4.25;3.40;;;;;;;26.10;50.08;99823.13;4447254;32;34962;-77
2022/08/02 07:24:46;;;;;;;6.05;3.33;;;;;;;25.76;49.34;99817.31;4444497;32;35330;-77
2022/08/02 07:27:33;;;;;;;4.45;3.30;;;;;;;26.08;48.48;99816.31;4447916;32;35007;-79
2022/08/02 07:30:23;;;;;;;6.35;3.45;;;;;;;26.68;46.00;99815.81;4446363;32;34755;-78
2022/08/02 07:33:10;;;;;;;6.40;3.20;;;;;;;25.93;48.90;99816.41;4433085;32;34963;-77
2022/08/02 07:36:17;;;;;;;5.20;3.17;;;;;;;26.88;46.12;99804.78;4437114;32;34395;-77
2022/08/02 07:39:11;;;;;;;3.62;3.25;;;;;;;26.19;48.48;99811.41;4442627;32;34671;-80
2022/08/02 07:41:59;;;;;;;6.70;3.50;;;;;;;26.65;48.09;99799.00;4445910;32;34624;-78
2022/08/02 07:44:47;;;;;;;7.50;3.40;;;;;;;26.52;47.19;99804.31;4445314;32;34599;-78
2022/08/02 07:47:42;;;;;;;4.68;4.07;;;;;;;26.95;46.15;99805.91;4442094;32;34425;-78
2022/08/02 07:50:45;;;;;;;8.55;4.20;;;;;;;27.02;46.52;99800.22;4437516;32;34062;-76
2022/08/02 07:53:33;;;;;;;6.45;4.05;;;;;;;27.18;45.41;99814.53;4445898;32;34723;-78
2022/08/02 07:56:43;;;;;;;6.40;3.45;;;;;;;26.78;47.36;99802.91;4439261;32;35736;-77
2022/08/02 07:59:30;;;;;;;6.93;3.87;;;;;;;26.91;47.09;99808.75;4429279;32;34599;-77
2022/08/02 08:02:23;;;;;;;9.63;3.95;;;;;;;26.83;47.20;99808.03;4438896;32;34000;-77
2022/08/02 08:05:11;;;;;;;6.03;3.83;;;;;;;27.64;46.14;99807.50;4433308;32;34297;-77
2022/08/02 08:07:58;;;;;;;8.07;3.58;;;;;;;27.42;43.85;99811.81;4429813;32;34641;-77
2022/08/02 08:10:46;;;;;;;5.85;3.58;;;;;;;27.75;44.94;99805.34;4447407;32;34553;-78
2022/08/02 08:13:32;;;;;;;4.50;3.83;;;;;;;28.36;43.65;99812.06;4419978;32;34615;-76
2022/08/02 08:16:25;;;;;;;8.48;4.32;;;;;;;27.14;44.51;99813.72;4429199;32;34064;-79
2022/08/02 08:19:12;;;;;;;7.55;4.18;;;;;;;26.49;46.56;99816.38;4440600;32;35028;-77
2022/08/02 08:22:00;;;;;;;6.32;3.75;;;;;;;27.57;44.38;99814.00;4446268;32;33798;-79
2022/08/02 08:24:49;;;;;;;4.40;3.47;;;;;;;28.01;43.71;99814.25;4447366;32;33773;-78
2022/08/02 08:27:36;;;;;;;5.15;3.87;;;;;;;28.63;42.97;99826.09;4433228;32;35138;-77
2022/08/02 08:30:25;;;;;;;6.57;3.92;;;;;;;28.88;40.64;99817.19;4427396;32;35396;-76
2022/08/02 08:33:16;;;;;;;4.57;3.47;;;;;;;29.25;40.34;99809.66;4435960;32;34626;-79
2022/08/02 08:36:04;;;;;;;7.72;3.80;;;;;;;28.87;40.32;99818.44;4444620;32;33503;-79
2022/08/02 08:38:51;;;;;;;6.87;3.70;;;;;;;29.04;39.80;99817.31;4443366;32;35624;-79
2022/08/02 08:41:42;;;;;;;6.47;3.50;;;;;;;29.36;39.96;99813.84;4444863;32;36014;-77
2022/08/02 08:44:29;;;;;;;4.78;3.33;;;;;;;29.14;39.99;99816.34;4442258;32;35145;-76
2022/08/02 08:47:18;;;;;;;6.40;3.40;;;;;;;30.05;37.54;99827.28;4434067;32;35092;-76
2022/08/02 08:50:23;;;;;;;6.07;3.40;;;;;;;30.15;39.10;99819.78;4447320;32;34591;-76
2022/08/02 08:53:13;;;;;;;7.10;3.80;;;;;;;29.97;37.59;99825.84;4439221;32;34830;-78
2022/08/02 08:56:01;;;;;;;5.15;3.47;;;;;;;30.36;37.94;99818.50;4443773;32;34119;-78
2022/08/02 08:58:52;;;;;;;5.10;3.67;;;;;;;30.08;37.67;99823.56;4444527;32;34026;-78
2022/08/02 09:01:43;;;;;;;2.95;1.95;;;;;;;29.51;37.58;99822.81;4448397;32;36051;-77
2022/08/02 09:04:36;;;;;;;2.87;2.10;;;;;;;30.35;34.62;99831.84;4438701;32;34629;-76
2022/08/02 09:07:35;;;;;;;3.58;1.95;;;;;;;30.61;35.44;99826.34;4444235;32;34520;-78
2022/08/02 09:10:43;;;;;;;3.08;2.33;;;;;;;29.67;34.90;99830.56;4433212;32;34925;-77
2022/08/02 09:13:31;;;;;;;4.35;2.33;;;;;;;30.00;34.97;99831.44;4445526;32;35647;-77
2022/08/02 09:16:33;;;;;;;2.03;1.83;;;;;;;30.37;33.43;99823.72;4444448;32;35069;-78
2022/08/02 09:19:28;;;;;;;3.12;2.10;;;;;;;30.13;34.22;99831.53;4435401;32;34482;-76
2022/08/02 09:22:17;;;;;;;3.00;2.10;;;;;;;30.98;33.24;99824.97;4445420;32;34012;-80
2022/08/02 09:25:14;;;;;;;2.85;1.83;;;;;;;31.04;33.30;99822.38;4424032;32;35632;-81
2022/08/02 09:28:04;;;;;;;3.40;2.25;;;;;;;29.95;32.66;99829.12;4446754;32;34550;-77
2022/08/02 09:30:55;;;;;;;4.15;2.00;;;;;;;30.15;33.42;99831.09;4445023;32;35371;-76
2022/08/02 09:33:54;;;;;;;3.08;1.92;;;;;;;30.28;32.36;99829.16;4446020;32;33767;-77
2022/08/02 09:36:45;;;;;;;3.08;1.95;;;;;;;30.43;32.81;99819.13;4443976;32;35607;-77
2022/08/02 09:39:44;;;;;;;2.53;2.20;;;;;;;30.47;33.35;99825.47;4425508;32;35016;-76
2022/08/02 09:42:36;;;;;;;2.58;1.83;;;;;;;30.25;33.34;99830.06;4445596;32;33360;-78
2022/08/02 09:45:29;;;;;;;3.90;2.22;;;;;;;30.95;32.05;99827.91;4446552;32;33846;-78
2022/08/02 09:48:17;;;;;;;2.80;2.42;;;;;;;31.34;31.38;99818.31;4445832;32;34280;-77
2022/08/02 09:51:11;;;;;;;6.00;2.47;;;;;;;30.75;32.30;99823.13;4441547;32;34720;-75
2022/08/02 09:54:07;;;;;;;3.03;2.50;;;;;;;31.63;32.08;99809.78;4423765;32;35339;-75
2022/08/02 09:57:00;;;;;;;3.45;2.40;;;;;;;30.98;32.40;99816.47;4448344;32;35132;-76
2022/08/02 09:59:52;;;;;;;2.97;2.67;;;;;;;31.58;30.93;99811.13;4448093;32;35506;-75
2022/08/02 10:03:06;;;;;;;3.53;2.60;;;;;;;30.46;33.24;99806.91;4449160;32;34709;-75
2022/08/02 10:06:00;;;;;;;4.30;2.67;;;;;;;31.05;33.01;99812.66;4447452;32;35079;-77
2022/08/02 10:08:52;;;;;;;6.15;2.80;;;;;;;30.43;33.58;99807.81;4432426;32;33538;-76
2022/08/02 10:11:54;;;;;;;6.15;2.87;;;;;;;30.25;34.32;99804.63;4448273;32;34847;-77
2022/08/02 10:14:42;;;;;;;4.47;2.78;;;;;;;30.28;34.77;99800.91;4436659;32;34893;-78
2022/08/02 10:20:22;;;;;;;3.03;2.62;;;;;;;28.89;38.11;99796.25;4443695;32;32954;-78
2022/08/02 10:23:10;;;;;;;5.30;3.08;;;;;;;28.88;38.71;99791.81;4446930;32;35266;-79
2022/08/02 10:26:02;;;;;;;3.92;2.90;;;;;;;28.76;38.39;99798.09;4448252;32;34527;-78
2022/08/02 10:28:56;;;;;;;4.00;3.10;;;;;;;29.02;38.03;99796.38;4447186;32;33275;-80
2022/08/02 10:31:53;;;;;;;4.18;3.00;;;;;;;29.24;37.81;99791.94;4446758;32;32890;-78
2022/08/02 10:35:00;;;;;;;3.45;2.60;;;;;;;29.85;36.18;99790.63;4435321;32;34817;-76
2022/08/02 10:38:10;;;;;;;6.78;2.80;;;;;;;30.25;35.40;99788.47;4443323;32;34954;-77
2022/08/02 10:40:58;;;;;;;3.00;2.70;;;;;;;31.20;34.76;99779.87;4435479;32;34164;-78
2022/08/02 10:43:55;;;;;;;4.40;2.90;;;;;;;30.82;33.90;99774.88;4435140;32;33686;-79
2022/08/02 10:46:47;;;;;;;4.80;2.85;;;;;;;31.37;32.91;99777.81;4445150;32;35540;-79
2022/08/02 10:49:55;;;;;;;;;;;;;;;29.74;35.30;99779.59;4447099;32;34911;-78
2022/08/02 10:52:42;;;;;;;4.00;2.78;;;;;;;30.26;34.20;99786.44;4447137;32;34820;-79
2022/08/02 10:55:44;;;;;;;3.95;3.15;;;;;;;29.21;36.10;99781.53;4430684;32;33652;-80
2022/08/02 10:58:34;;;;;;;4.60;2.90;;;;;;;29.22;36.72;99787.97;4439713;32;35516;-79
2022/08/02 11:01:31;;;;;;;3.50;2.62;;;;;;;29.31;36.09;99780.47;4444744;32;34951;-80
2022/08/02 11:04:29;;;;;;;3.83;2.92;;;;;;;29.68;36.06;99786.97;4433937;32;35427;-79
2022/08/02 11:07:18;;;;;;;3.67;3.03;;;;;;;28.75;37.60;99783.22;4442989;32;34936;-80
2022/08/02 11:13:25;;;;;;;4.53;2.92;;;;;;;29.66;37.19;99777.38;4445341;32;35641;-79
2022/08/02 11:16:14;;;;;;;3.50;2.87;;;;;;;29.90;35.67;99778.81;4444827;32;34500;-80
2022/08/02 11:19:02;;;;;;;3.92;2.90;;;;;;;30.80;34.59;99773.75;4444403;32;32955;-79
2022/08/02 11:22:01;;;;;;;4.30;2.72;;;;;;;30.42;35.47;99766.63;4437295;32;34643;-82
2022/08/02 11:24:49;;;;;;;4.55;2.87;;;;;;;29.00;38.07;99777.09;4452466;32;35279;-80
2022/08/02 11:27:37;;;;;;;3.67;2.62;;;;;;;29.29;36.48;99765.25;4449226;32;34372;-80
2022/08/02 11:30:31;;;;;;;3.45;2.75;;;;;;;29.12;37.41;99770.81;4447092;32;35046;-79
2022/08/02 11:33:29;;;;;;;4.93;3.10;;;;;;;28.95;37.64;99780.41;4438404;32;34642;-81
2022/08/02 11:36:19;;;;;;;3.92;3.00;;;;;;;28.76;37.98;99776.34;4427142;32;34911;-81
2022/08/02 11:39:22;;;;;;;4.25;2.97;;;;;;;30.01;35.94;99779.34;4446655;32;34082;-80
2022/08/02 11:42:10;;;;;;;4.40;2.80;;;;;;;31.17;33.88;99766.63;4449664;32;33758;-80
2022/08/02 11:45:00;;;;;;;;;;;;;;;32.08;32.59;99760.62;4444065;32;34203;-80
2022/08/02 11:47:50;;;;;;;3.42;2.80;;;;;;;33.07;32.07;99755.56;4446880;32;34575;-80
2022/08/02 11:50:44;;;;;;;4.03;2.60;;;;;;;32.63;30.49;99761.16;4429265;32;35055;-80
2022/08/02 11:53:40;;;;;;;2.97;2.60;;;;;;;32.37;31.05;99762.47;4432644;32;34278;-80
2022/08/02 11:56:34;;;;;;;3.65;2.47;;;;;;;30.77;33.57;99757.66;4435400;32;34235;-82
2022/08/02 11:59:26;;;;;;;3.70;2.50;;;;;;;31.02;33.22;99768.28;4436512;32;34841;-81
2022/08/02 12:02:20;;;;;;;3.10;2.40;;;;;;;30.03;35.03;99767.63;4443908;32;34343;-81
2022/08/02 12:05:09;;;;;;;3.70;3.05;;;;;;;29.47;36.15;99768.47;4432445;32;33815;-81
2022/08/02 12:07:59;;;;;;;3.45;2.28;;;;;;;29.74;36.04;99773.13;4434039;32;35006;-80
2022/08/02 12:10:56;;;;;;;3.42;2.67;;;;;;;29.05;37.29;99764.53;4446215;32;35064;-81
2022/08/02 12:13:44;;;;;;;4.47;2.53;;;;;;;29.49;36.42;99768.03;4442352;32;35241;-80
2022/08/02 12:19:50;;;;;;;3.75;2.72;;;;;;;30.45;35.78;99753.62;4444864;32;35118;-80
2022/08/02 12:22:41;;;;;;;3.80;2.42;;;;;;;29.68;35.77;99763.59;4449129;32;35052;-79
2022/08/02 12:25:33;;;;;;;4.18;2.40;;;;;;;30.15;36.08;99757.63;4446017;32;35422;-80
2022/08/02 12:28:25;;;;;;;2.70;2.33;;;;;;;29.77;35.93;99766.59;4434259;32;35040;-80
2022/08/02 12:31:16;;;;;;;4.90;2.50;;;;;;;30.88;35.24;99747.66;4446251;32;34761;-80
2022/08/02 12:34:15;;;;;;;3.28;2.60;;;;;;;31.57;33.91;99747.25;4448466;32;34619;-78
2022/08/02 12:37:08;;;;;;;4.60;2.40;;;;;;;32.06;32.70;99750.97;4435665;32;33292;-79
2022/08/02 12:40:23;;;;;;;2.70;2.22;;;;;;;32.54;32.95;99737.62;4434793;32;34104;-81
2022/08/02 12:43:19;;;;;;;2.47;1.87;;;;;;;32.48;30.85;99735.38;4445729;32;35197;-79
2022/08/02 12:46:15;;;;;;;2.62;1.83;;;;;;;32.89;30.24;99738.34;4434583;32;34746;-79
2022/08/02 12:49:18;;;;;;;5.43;2.60;;;;;;;30.80;33.20;99729.28;4446992;32;34407;-79
2022/08/02 12:52:23;;;;;;;3.28;2.10;;;;;;;30.76;33.22;99734.22;4447598;32;33780;-80
2022/08/02 12:55:24;;;;;;;6.82;1.90;;;;;;;32.76;30.67;99737.62;4436214;32;34585;-78
2022/08/02 12:58:53;;;;;;;;;;;;;;;32.42;30.78;99739.22;4444574;32;34532;-78
2022/08/02 13:01:41;;;;;;;2.05;1.80;;;;;;;32.02;31.14;99734.09;4447928;32;34286;-79
2022/08/02 13:04:30;;;;;;;2.33;2.05;;;;;;;32.80;30.76;99738.31;4442391;32;34362;-78
2022/08/02 13:07:21;;;;;;;3.10;1.70;;;;;;;32.87;29.79;99741.69;4442739;32;34853;-79
2022/08/02 13:10:09;;;;;;;2.72;1.75;;;;;;;34.11;28.95;99739.34;4442442;32;35644;-79
2022/08/02 13:13:02;;;;;;;2.15;1.90;;;;;;;33.58;28.60;99740.22;4439853;32;34505;-79
2022/08/02 13:15:50;;;;;;;2.62;1.70;;;;;;;33.12;26.97;99734.28;4423243;32;35223;-78
2022/08/02 13:18:39;;;;;;;1.77;1.33;;;;;;;33.37;26.77;99731.28;4447820;32;35643;-79
2022/08/02 13:21:35;;;;;;;3.03;1.95;;;;;;;32.20;28.14;99727.81;4433406;32;35784;-79
2022/08/02 13:24:42;;;;;;;1.73;1.50;;;;;;;33.43;28.36;99716.47;4443168;32;35363;-80
2022/08/02 13:27:44;;;;;;;1.60;1.30;;;;;;;33.68;26.58;99721.19;4447387;32;33058;-78
2022/08/02 13:30:38;;;;;;;1.58;1.37;;;;;;;33.46;26.04;99722.00;4446366;32;34222;-78
2022/08/02 13:33:29;;;;;;;2.00;1.20;;;;;;;33.73;25.91;99721.38;4435579;32;35948;-78
2022/08/02 13:36:37;;;;;;;1.70;1.23;;;;;;;32.20;26.24;99717.28;4446255;32;34478;-76
2022/08/02 13:39:26;;;;;;;3.75;1.20;;;;;;;31.66;28.92;99723.91;4448010;32;33035;-79
2022/08/02 13:42:16;;;;;;;1.27;1.05;;;;;;;31.87;28.01;99718.78;4447703;32;34112;-78
2022/08/02 13:45:15;;;;;;;1.60;1.25;;;;;;;31.49;28.97;99711.09;4438155;32;33660;-78
2022/08/02 13:48:06;;;;;;;1.15;1.05;;;;;;;32.00;28.81;99711.09;4440081;32;36538;-78
2022/08/02 13:51:10;;;;;;;1.42;1.15;;;;;;;32.56;27.77;99715.25;4443363;32;33777;-80
2022/08/02 13:54:02;;;;;;;1.77;1.20;;;;;;;32.20;27.88;99717.28;4446604;32;33677;-78
2022/08/02 13:56:57;;;;;;;2.30;1.00;;;;;;;31.74;29.47;99716.75;4442805;32;35608;-80
2022/08/02 13:59:46;;;;;;;1.77;1.10;;;;;;;32.25;28.31;99708.19;4449133;32;34527;-80
2022/08/02 14:02:52;;;;;;;2.17;1.23;;;;;;;32.28;27.65;99712.16;4442619;32;34148;-79